sensor_id;sensor_type;location;lat;lon;timestamp;P1;durP1;ratioP1;P2;durP2;ratioP2
64520;SDS011;50896;46.714;17.322;2023-09-30T00:00:10;9.95;;;6.57;;
64520;SDS011;50896;46.714;17.322;2023-09-30T00:02:38;9.73;;;6.43;;
64520;SDS011;50896;46.714;17.322;2023-09-30T00:05:05;10.77;;;6.30;;
64520;SDS011;50896;46.714;17.322;2023-09-30T00:07:33;11.32;;;6.63;;
64520;SDS011;50896;46.714;17.322;2023-09-30T00:10:00;9.82;;;6.90;;
64520;SDS011;50896;46.714;17.322;2023-09-30T00:12:27;10.27;;;6.78;;
64520;SDS011;50896;46.714;17.322;2023-09-30T00:14:54;8.50;;;7.00;;
64520;SDS011;50896;46.714;17.322;2023-09-30T00:17:21;9.93;;;6.38;;
64520;SDS011;50896;46.714;17.322;2023-09-30T00:19:48;8.25;;;6.60;;
64520;SDS011;50896;46.714;17.322;2023-09-30T00:22:15;11.23;;;6.38;;
64520;SDS011;50896;46.714;17.322;2023-09-30T00:24:42;12.07;;;6.97;;
64520;SDS011;50896;46.714;17.322;2023-09-30T00:27:09;12.13;;;6.43;;
64520;SDS011;50896;46.714;17.322;2023-09-30T00:29:36;8.52;;;5.80;;
64520;SDS011;50896;46.714;17.322;2023-09-30T00:32:03;9.23;;;6.05;;
64520;SDS011;50896;46.714;17.322;2023-09-30T00:34:36;12.13;;;6.32;;
64520;SDS011;50896;46.714;17.322;2023-09-30T00:37:03;11.85;;;6.30;;
64520;SDS011;50896;46.714;17.322;2023-09-30T00:39:32;10.38;;;5.95;;
64520;SDS011;50896;46.714;17.322;2023-09-30T00:41:59;9.25;;;6.07;;
64520;SDS011;50896;46.714;17.322;2023-09-30T00:44:27;8.80;;;6.70;;
64520;SDS011;50896;46.714;17.322;2023-09-30T00:46:54;11.15;;;6.90;;
64520;SDS011;50896;46.714;17.322;2023-09-30T00:49:22;12.75;;;6.97;;
64520;SDS011;50896;46.714;17.322;2023-09-30T00:51:51;11.70;;;7.73;;
64520;SDS011;50896;46.714;17.322;2023-09-30T00:54:19;13.18;;;6.85;;
64520;SDS011;50896;46.714;17.322;2023-09-30T00:56:48;9.30;;;6.32;;
64520;SDS011;50896;46.714;17.322;2023-09-30T00:59:17;8.60;;;5.85;;
64520;SDS011;50896;46.714;17.322;2023-09-30T01:01:45;9.65;;;6.30;;
64520;SDS011;50896;46.714;17.322;2023-09-30T01:04:14;8.00;;;5.95;;
64520;SDS011;50896;46.714;17.322;2023-09-30T01:06:42;9.60;;;6.57;;
64520;SDS011;50896;46.714;17.322;2023-09-30T01:09:09;8.60;;;6.40;;
64520;SDS011;50896;46.714;17.322;2023-09-30T01:11:36;7.80;;;6.40;;
64520;SDS011;50896;46.714;17.322;2023-09-30T01:14:03;9.35;;;6.70;;
64520;SDS011;50896;46.714;17.322;2023-09-30T01:16:30;11.25;;;6.88;;
64520;SDS011;50896;46.714;17.322;2023-09-30T01:18:57;12.70;;;6.47;;
64520;SDS011;50896;46.714;17.322;2023-09-30T01:21:24;10.57;;;7.70;;
64520;SDS011;50896;46.714;17.322;2023-09-30T01:23:54;9.20;;;6.88;;
64520;SDS011;50896;46.714;17.322;2023-09-30T01:26:21;8.23;;;6.53;;
64520;SDS011;50896;46.714;17.322;2023-09-30T01:28:49;10.43;;;6.97;;
64520;SDS011;50896;46.714;17.322;2023-09-30T01:31:16;7.43;;;6.28;;
64520;SDS011;50896;46.714;17.322;2023-09-30T01:33:43;8.38;;;6.70;;
64520;SDS011;50896;46.714;17.322;2023-09-30T01:36:10;8.27;;;6.43;;
64520;SDS011;50896;46.714;17.322;2023-09-30T01:38:38;10.38;;;5.95;;
64520;SDS011;50896;46.714;17.322;2023-09-30T01:41:05;7.53;;;5.72;;
64520;SDS011;50896;46.714;17.322;2023-09-30T01:43:34;9.45;;;6.25;;
64520;SDS011;50896;46.714;17.322;2023-09-30T01:46:03;6.50;;;5.65;;
64520;SDS011;50896;46.714;17.322;2023-09-30T01:48:32;8.23;;;5.75;;
64520;SDS011;50896;46.714;17.322;2023-09-30T01:50:59;8.45;;;6.30;;
64520;SDS011;50896;46.714;17.322;2023-09-30T01:53:26;8.70;;;5.65;;
64520;SDS011;50896;46.714;17.322;2023-09-30T01:55:53;8.15;;;5.85;;
64520;SDS011;50896;46.714;17.322;2023-09-30T01:58:20;7.13;;;6.15;;
64520;SDS011;50896;46.714;17.322;2023-09-30T02:00:47;8.23;;;5.43;;
64520;SDS011;50896;46.714;17.322;2023-09-30T02:03:14;7.82;;;5.45;;
64520;SDS011;50896;46.714;17.322;2023-09-30T02:05:41;9.82;;;6.00;;
64520;SDS011;50896;46.714;17.322;2023-09-30T02:08:08;7.15;;;6.25;;
64520;SDS011;50896;46.714;17.322;2023-09-30T02:10:35;9.05;;;5.50;;
64520;SDS011;50896;46.714;17.322;2023-09-30T02:13:02;7.57;;;6.55;;
64520;SDS011;50896;46.714;17.322;2023-09-30T02:15:33;8.23;;;6.13;;
64520;SDS011;50896;46.714;17.322;2023-09-30T02:18:00;7.22;;;6.15;;
64520;SDS011;50896;46.714;17.322;2023-09-30T02:20:27;7.82;;;6.38;;
64520;SDS011;50896;46.714;17.322;2023-09-30T02:25:25;8.68;;;6.60;;
64520;SDS011;50896;46.714;17.322;2023-09-30T02:27:52;9.90;;;6.18;;
64520;SDS011;50896;46.714;17.322;2023-09-30T02:30:19;15.40;;;6.57;;
64520;SDS011;50896;46.714;17.322;2023-09-30T02:32:47;9.60;;;6.07;;
64520;SDS011;50896;46.714;17.322;2023-09-30T02:35:14;9.82;;;5.80;;
64520;SDS011;50896;46.714;17.322;2023-09-30T02:37:42;8.20;;;6.25;;
64520;SDS011;50896;46.714;17.322;2023-09-30T02:40:09;11.45;;;6.65;;
64520;SDS011;50896;46.714;17.322;2023-09-30T02:42:38;8.55;;;6.63;;
64520;SDS011;50896;46.714;17.322;2023-09-30T02:45:07;7.78;;;6.85;;
64520;SDS011;50896;46.714;17.322;2023-09-30T02:47:35;10.93;;;6.50;;
64520;SDS011;50896;46.714;17.322;2023-09-30T02:50:07;10.25;;;7.18;;
64520;SDS011;50896;46.714;17.322;2023-09-30T02:52:35;12.13;;;7.32;;
64520;SDS011;50896;46.714;17.322;2023-09-30T02:55:03;9.07;;;6.80;;
64520;SDS011;50896;46.714;17.322;2023-09-30T02:57:30;11.77;;;6.65;;
64520;SDS011;50896;46.714;17.322;2023-09-30T02:59:58;10.43;;;6.40;;
64520;SDS011;50896;46.714;17.322;2023-09-30T03:02:27;13.80;;;6.30;;
64520;SDS011;50896;46.714;17.322;2023-09-30T03:04:55;10.20;;;6.35;;
64520;SDS011;50896;46.714;17.322;2023-09-30T03:09:51;10.65;;;6.50;;
64520;SDS011;50896;46.714;17.322;2023-09-30T03:12:20;10.50;;;6.78;;
64520;SDS011;50896;46.714;17.322;2023-09-30T03:14:47;14.77;;;7.25;;
64520;SDS011;50896;46.714;17.322;2023-09-30T03:17:14;11.38;;;7.57;;
64520;SDS011;50896;46.714;17.322;2023-09-30T03:19:41;12.73;;;7.50;;
64520;SDS011;50896;46.714;17.322;2023-09-30T03:22:08;11.27;;;7.30;;
64520;SDS011;50896;46.714;17.322;2023-09-30T03:24:38;11.77;;;7.15;;
64520;SDS011;50896;46.714;17.322;2023-09-30T03:27:07;10.05;;;6.00;;
64520;SDS011;50896;46.714;17.322;2023-09-30T03:29:35;14.10;;;6.22;;
64520;SDS011;50896;46.714;17.322;2023-09-30T03:32:04;9.82;;;6.45;;
64520;SDS011;50896;46.714;17.322;2023-09-30T03:34:31;9.77;;;6.60;;
64520;SDS011;50896;46.714;17.322;2023-09-30T03:36:58;9.95;;;6.25;;
64520;SDS011;50896;46.714;17.322;2023-09-30T03:39:25;11.18;;;7.30;;
64520;SDS011;50896;46.714;17.322;2023-09-30T03:41:54;12.23;;;8.55;;
64520;SDS011;50896;46.714;17.322;2023-09-30T03:44:22;12.32;;;8.60;;
64520;SDS011;50896;46.714;17.322;2023-09-30T03:46:50;13.98;;;9.45;;
64520;SDS011;50896;46.714;17.322;2023-09-30T03:49:18;10.68;;;8.15;;
64520;SDS011;50896;46.714;17.322;2023-09-30T03:51:48;18.55;;;9.00;;
64520;SDS011;50896;46.714;17.322;2023-09-30T03:54:17;11.75;;;8.38;;
64520;SDS011;50896;46.714;17.322;2023-09-30T03:56:45;14.18;;;9.75;;
64520;SDS011;50896;46.714;17.322;2023-09-30T03:59:13;16.50;;;8.68;;
64520;SDS011;50896;46.714;17.322;2023-09-30T04:01:40;10.93;;;8.38;;
64520;SDS011;50896;46.714;17.322;2023-09-30T04:04:07;12.75;;;7.20;;
64520;SDS011;50896;46.714;17.322;2023-09-30T04:06:37;9.10;;;7.57;;
64520;SDS011;50896;46.714;17.322;2023-09-30T04:09:06;11.82;;;6.90;;
64520;SDS011;50896;46.714;17.322;2023-09-30T04:11:37;8.32;;;6.53;;
64520;SDS011;50896;46.714;17.322;2023-09-30T04:14:04;10.63;;;6.05;;
64520;SDS011;50896;46.714;17.322;2023-09-30T04:16:33;8.57;;;6.60;;
64520;SDS011;50896;46.714;17.322;2023-09-30T04:19:01;10.48;;;7.63;;
64520;SDS011;50896;46.714;17.322;2023-09-30T04:21:27;11.23;;;6.88;;
64520;SDS011;50896;46.714;17.322;2023-09-30T04:23:56;9.02;;;6.50;;
64520;SDS011;50896;46.714;17.322;2023-09-30T04:26:24;8.88;;;6.55;;
64520;SDS011;50896;46.714;17.322;2023-09-30T04:28:52;10.93;;;7.15;;
64520;SDS011;50896;46.714;17.322;2023-09-30T04:31:20;8.73;;;7.40;;
64520;SDS011;50896;46.714;17.322;2023-09-30T04:33:50;9.68;;;6.28;;
64520;SDS011;50896;46.714;17.322;2023-09-30T04:36:18;10.52;;;6.53;;
64520;SDS011;50896;46.714;17.322;2023-09-30T04:38:45;10.68;;;6.57;;
64520;SDS011;50896;46.714;17.322;2023-09-30T04:41:12;10.05;;;6.65;;
64520;SDS011;50896;46.714;17.322;2023-09-30T04:43:39;9.82;;;7.32;;
64520;SDS011;50896;46.714;17.322;2023-09-30T04:46:06;13.80;;;8.43;;
64520;SDS011;50896;46.714;17.322;2023-09-30T04:48:40;13.10;;;8.15;;
64520;SDS011;50896;46.714;17.322;2023-09-30T04:51:08;12.35;;;7.65;;
64520;SDS011;50896;46.714;17.322;2023-09-30T04:53:36;11.50;;;8.40;;
64520;SDS011;50896;46.714;17.322;2023-09-30T04:56:03;11.90;;;7.38;;
64520;SDS011;50896;46.714;17.322;2023-09-30T04:58:30;10.20;;;7.57;;
64520;SDS011;50896;46.714;17.322;2023-09-30T05:00:57;9.63;;;7.53;;
64520;SDS011;50896;46.714;17.322;2023-09-30T05:03:25;9.15;;;7.18;;
64520;SDS011;50896;46.714;17.322;2023-09-30T05:05:52;8.95;;;7.10;;
64520;SDS011;50896;46.714;17.322;2023-09-30T05:08:23;9.38;;;7.43;;
64520;SDS011;50896;46.714;17.322;2023-09-30T05:10:51;10.60;;;7.47;;
64520;SDS011;50896;46.714;17.322;2023-09-30T05:13:22;11.40;;;6.93;;
64520;SDS011;50896;46.714;17.322;2023-09-30T05:15:52;13.60;;;7.80;;
64520;SDS011;50896;46.714;17.322;2023-09-30T05:18:20;9.55;;;7.05;;
64520;SDS011;50896;46.714;17.322;2023-09-30T05:20:47;10.18;;;7.88;;
64520;SDS011;50896;46.714;17.322;2023-09-30T05:23:16;12.32;;;7.68;;
64520;SDS011;50896;46.714;17.322;2023-09-30T05:25:45;9.73;;;7.72;;
64520;SDS011;50896;46.714;17.322;2023-09-30T05:28:12;8.52;;;6.90;;
64520;SDS011;50896;46.714;17.322;2023-09-30T05:30:40;8.70;;;7.40;;
64520;SDS011;50896;46.714;17.322;2023-09-30T05:33:07;15.60;;;8.45;;
64520;SDS011;50896;46.714;17.322;2023-09-30T05:35:34;25.98;;;15.48;;
64520;SDS011;50896;46.714;17.322;2023-09-30T05:38:01;16.95;;;12.60;;
64520;SDS011;50896;46.714;17.322;2023-09-30T05:40:29;17.55;;;11.63;;
64520;SDS011;50896;46.714;17.322;2023-09-30T05:42:57;13.90;;;9.98;;
64520;SDS011;50896;46.714;17.322;2023-09-30T05:45:26;13.75;;;9.90;;
64520;SDS011;50896;46.714;17.322;2023-09-30T05:47:54;14.77;;;9.32;;
64520;SDS011;50896;46.714;17.322;2023-09-30T05:50:23;11.05;;;9.00;;
64520;SDS011;50896;46.714;17.322;2023-09-30T05:52:55;12.15;;;9.00;;
64520;SDS011;50896;46.714;17.322;2023-09-30T05:55:23;14.00;;;9.65;;
64520;SDS011;50896;46.714;17.322;2023-09-30T05:57:52;14.05;;;9.15;;
64520;SDS011;50896;46.714;17.322;2023-09-30T06:00:21;16.90;;;9.73;;
64520;SDS011;50896;46.714;17.322;2023-09-30T06:02:58;11.48;;;9.32;;
64520;SDS011;50896;46.714;17.322;2023-09-30T06:05:26;14.02;;;9.77;;
64520;SDS011;50896;46.714;17.322;2023-09-30T06:07:56;11.77;;;9.00;;
64520;SDS011;50896;46.714;17.322;2023-09-30T06:10:23;14.80;;;8.98;;
64520;SDS011;50896;46.714;17.322;2023-09-30T06:12:52;11.05;;;8.40;;
64520;SDS011;50896;46.714;17.322;2023-09-30T06:15:23;14.07;;;8.48;;
64520;SDS011;50896;46.714;17.322;2023-09-30T06:17:55;10.65;;;8.10;;
64520;SDS011;50896;46.714;17.322;2023-09-30T06:20:23;14.23;;;8.40;;
64520;SDS011;50896;46.714;17.322;2023-09-30T06:22:54;13.38;;;9.48;;
64520;SDS011;50896;46.714;17.322;2023-09-30T06:25:20;11.05;;;9.05;;
64520;SDS011;50896;46.714;17.322;2023-09-30T06:27:50;13.00;;;9.15;;
64520;SDS011;50896;46.714;17.322;2023-09-30T06:30:18;14.80;;;11.18;;
64520;SDS011;50896;46.714;17.322;2023-09-30T06:32:48;16.30;;;11.00;;
64520;SDS011;50896;46.714;17.322;2023-09-30T06:35:16;16.77;;;10.00;;
64520;SDS011;50896;46.714;17.322;2023-09-30T06:37:45;12.25;;;9.98;;
64520;SDS011;50896;46.714;17.322;2023-09-30T06:40:12;14.68;;;10.30;;
64520;SDS011;50896;46.714;17.322;2023-09-30T06:42:39;15.73;;;10.35;;
64520;SDS011;50896;46.714;17.322;2023-09-30T06:45:07;12.98;;;9.60;;
64520;SDS011;50896;46.714;17.322;2023-09-30T06:47:37;15.60;;;10.15;;
64520;SDS011;50896;46.714;17.322;2023-09-30T06:50:08;13.02;;;10.13;;
64520;SDS011;50896;46.714;17.322;2023-09-30T06:52:38;13.52;;;8.98;;
64520;SDS011;50896;46.714;17.322;2023-09-30T06:55:07;13.10;;;10.35;;
64520;SDS011;50896;46.714;17.322;2023-09-30T06:57:36;14.73;;;10.98;;
64520;SDS011;50896;46.714;17.322;2023-09-30T07:00:08;14.47;;;10.93;;
64520;SDS011;50896;46.714;17.322;2023-09-30T07:02:39;16.70;;;10.05;;
64520;SDS011;50896;46.714;17.322;2023-09-30T07:05:08;13.43;;;9.90;;
64520;SDS011;50896;46.714;17.322;2023-09-30T07:07:39;18.23;;;10.35;;
64520;SDS011;50896;46.714;17.322;2023-09-30T07:10:09;14.68;;;10.45;;
64520;SDS011;50896;46.714;17.322;2023-09-30T07:12:37;14.55;;;10.07;;
64520;SDS011;50896;46.714;17.322;2023-09-30T07:15:05;16.63;;;9.80;;
64520;SDS011;50896;46.714;17.322;2023-09-30T07:17:32;16.20;;;10.70;;
64520;SDS011;50896;46.714;17.322;2023-09-30T07:20:01;18.27;;;10.20;;
64520;SDS011;50896;46.714;17.322;2023-09-30T07:22:29;13.10;;;8.65;;
64520;SDS011;50896;46.714;17.322;2023-09-30T07:24:58;16.50;;;10.05;;
64520;SDS011;50896;46.714;17.322;2023-09-30T07:27:25;16.58;;;11.07;;
64520;SDS011;50896;46.714;17.322;2023-09-30T07:29:54;16.98;;;10.73;;
64520;SDS011;50896;46.714;17.322;2023-09-30T07:32:21;14.65;;;9.93;;
64520;SDS011;50896;46.714;17.322;2023-09-30T07:34:51;14.02;;;10.40;;
64520;SDS011;50896;46.714;17.322;2023-09-30T07:37:18;16.40;;;10.57;;
64520;SDS011;50896;46.714;17.322;2023-09-30T07:39:47;12.20;;;9.98;;
64520;SDS011;50896;46.714;17.322;2023-09-30T07:42:14;14.55;;;11.43;;
64520;SDS011;50896;46.714;17.322;2023-09-30T07:44:41;15.75;;;11.05;;
64520;SDS011;50896;46.714;17.322;2023-09-30T07:47:08;25.17;;;16.13;;
64520;SDS011;50896;46.714;17.322;2023-09-30T07:49:38;25.08;;;14.80;;
64520;SDS011;50896;46.714;17.322;2023-09-30T07:52:05;28.00;;;20.55;;
64520;SDS011;50896;46.714;17.322;2023-09-30T07:54:31;26.52;;;16.00;;
64520;SDS011;50896;46.714;17.322;2023-09-30T07:56:58;29.85;;;16.73;;
64520;SDS011;50896;46.714;17.322;2023-09-30T07:59:26;18.38;;;13.40;;
64520;SDS011;50896;46.714;17.322;2023-09-30T08:01:53;18.38;;;10.40;;
64520;SDS011;50896;46.714;17.322;2023-09-30T08:04:20;16.42;;;11.68;;
64520;SDS011;50896;46.714;17.322;2023-09-30T08:06:48;18.70;;;11.30;;
64520;SDS011;50896;46.714;17.322;2023-09-30T08:09:16;20.83;;;10.68;;
64520;SDS011;50896;46.714;17.322;2023-09-30T08:11:45;12.95;;;8.95;;
64520;SDS011;50896;46.714;17.322;2023-09-30T08:14:12;12.73;;;8.20;;
64520;SDS011;50896;46.714;17.322;2023-09-30T08:16:39;12.65;;;7.35;;
64520;SDS011;50896;46.714;17.322;2023-09-30T08:19:06;14.05;;;9.10;;
64520;SDS011;50896;46.714;17.322;2023-09-30T08:21:33;13.80;;;8.20;;
64520;SDS011;50896;46.714;17.322;2023-09-30T08:24:01;14.63;;;9.07;;
64520;SDS011;50896;46.714;17.322;2023-09-30T08:26:29;13.20;;;8.73;;
64520;SDS011;50896;46.714;17.322;2023-09-30T08:28:55;17.55;;;8.82;;
64520;SDS011;50896;46.714;17.322;2023-09-30T08:31:22;17.02;;;9.95;;
64520;SDS011;50896;46.714;17.322;2023-09-30T08:33:50;15.25;;;9.68;;
64520;SDS011;50896;46.714;17.322;2023-09-30T08:36:17;11.20;;;8.52;;
64520;SDS011;50896;46.714;17.322;2023-09-30T08:38:45;10.23;;;8.13;;
64520;SDS011;50896;46.714;17.322;2023-09-30T08:41:17;11.00;;;8.38;;
64520;SDS011;50896;46.714;17.322;2023-09-30T08:43:56;13.70;;;9.50;;
64520;SDS011;50896;46.714;17.322;2023-09-30T08:46:30;13.32;;;8.68;;
64520;SDS011;50896;46.714;17.322;2023-09-30T08:49:02;14.02;;;9.20;;
64520;SDS011;50896;46.714;17.322;2023-09-30T08:51:31;13.82;;;8.73;;
64520;SDS011;50896;46.714;17.322;2023-09-30T08:53:59;13.20;;;8.82;;
64520;SDS011;50896;46.714;17.322;2023-09-30T08:56:28;16.75;;;9.15;;
64520;SDS011;50896;46.714;17.322;2023-09-30T08:58:59;34.08;;;20.23;;
64520;SDS011;50896;46.714;17.322;2023-09-30T09:01:28;40.40;;;24.85;;
64520;SDS011;50896;46.714;17.322;2023-09-30T09:03:56;35.47;;;20.17;;
64520;SDS011;50896;46.714;17.322;2023-09-30T09:06:24;26.25;;;16.95;;
64520;SDS011;50896;46.714;17.322;2023-09-30T09:08:52;21.92;;;14.27;;
64520;SDS011;50896;46.714;17.322;2023-09-30T09:11:19;23.95;;;14.40;;
64520;SDS011;50896;46.714;17.322;2023-09-30T09:16:22;21.13;;;11.68;;
64520;SDS011;50896;46.714;17.322;2023-09-30T09:18:52;14.55;;;9.88;;
64520;SDS011;50896;46.714;17.322;2023-09-30T09:21:20;15.32;;;9.05;;
64520;SDS011;50896;46.714;17.322;2023-09-30T09:23:50;15.73;;;9.27;;
64520;SDS011;50896;46.714;17.322;2023-09-30T09:26:25;15.68;;;8.10;;
64520;SDS011;50896;46.714;17.322;2023-09-30T09:29:02;12.50;;;7.78;;
64520;SDS011;50896;46.714;17.322;2023-09-30T09:31:34;9.52;;;7.28;;
64520;SDS011;50896;46.714;17.322;2023-09-30T09:34:02;9.07;;;7.25;;
64520;SDS011;50896;46.714;17.322;2023-09-30T09:36:40;15.02;;;7.38;;
64520;SDS011;50896;46.714;17.322;2023-09-30T09:39:09;12.20;;;7.20;;
64520;SDS011;50896;46.714;17.322;2023-09-30T09:41:49;11.55;;;7.03;;
64520;SDS011;50896;46.714;17.322;2023-09-30T09:44:20;9.98;;;6.90;;
64520;SDS011;50896;46.714;17.322;2023-09-30T09:46:49;11.90;;;7.22;;
64520;SDS011;50896;46.714;17.322;2023-09-30T09:49:17;11.95;;;7.53;;
64520;SDS011;50896;46.714;17.322;2023-09-30T09:51:48;11.10;;;7.20;;
64520;SDS011;50896;46.714;17.322;2023-09-30T09:54:16;15.48;;;7.68;;
64520;SDS011;50896;46.714;17.322;2023-09-30T09:56:46;9.18;;;7.28;;
64520;SDS011;50896;46.714;17.322;2023-09-30T09:59:14;8.02;;;6.95;;
64520;SDS011;50896;46.714;17.322;2023-09-30T10:01:41;9.70;;;6.75;;
64520;SDS011;50896;46.714;17.322;2023-09-30T10:04:12;9.88;;;6.95;;
64520;SDS011;50896;46.714;17.322;2023-09-30T10:06:42;11.85;;;7.28;;
64520;SDS011;50896;46.714;17.322;2023-09-30T10:09:15;12.23;;;7.00;;
64520;SDS011;50896;46.714;17.322;2023-09-30T10:11:43;13.53;;;7.33;;
64520;SDS011;50896;46.714;17.322;2023-09-30T10:14:29;13.70;;;7.50;;
64520;SDS011;50896;46.714;17.322;2023-09-30T10:17:00;14.20;;;7.27;;
64520;SDS011;50896;46.714;17.322;2023-09-30T10:19:28;17.73;;;8.27;;
64520;SDS011;50896;46.714;17.322;2023-09-30T10:24:58;13.82;;;7.30;;
64520;SDS011;50896;46.714;17.322;2023-09-30T10:30:05;15.32;;;7.65;;
64520;SDS011;50896;46.714;17.322;2023-09-30T10:35:21;18.08;;;8.57;;
64520;SDS011;50896;46.714;17.322;2023-09-30T10:40:49;13.23;;;6.97;;
64520;SDS011;50896;46.714;17.322;2023-09-30T10:43:33;14.98;;;8.00;;
64520;SDS011;50896;46.714;17.322;2023-09-30T10:48:53;17.25;;;7.75;;
64520;SDS011;50896;46.714;17.322;2023-09-30T10:51:20;16.85;;;8.63;;
64520;SDS011;50896;46.714;17.322;2023-09-30T10:53:52;17.58;;;8.50;;
64520;SDS011;50896;46.714;17.322;2023-09-30T10:56:23;21.73;;;8.30;;
64520;SDS011;50896;46.714;17.322;2023-09-30T10:58:57;17.33;;;8.20;;
64520;SDS011;50896;46.714;17.322;2023-09-30T11:01:26;14.40;;;7.85;;
64520;SDS011;50896;46.714;17.322;2023-09-30T11:04:00;17.35;;;8.65;;
64520;SDS011;50896;46.714;17.322;2023-09-30T11:06:31;15.85;;;7.95;;
64520;SDS011;50896;46.714;17.322;2023-09-30T11:08:59;15.18;;;7.50;;
64520;SDS011;50896;46.714;17.322;2023-09-30T11:11:37;20.43;;;8.60;;
64520;SDS011;50896;46.714;17.322;2023-09-30T11:16:43;16.20;;;7.85;;
64520;SDS011;50896;46.714;17.322;2023-09-30T11:19:11;20.40;;;8.50;;
64520;SDS011;50896;46.714;17.322;2023-09-30T11:21:38;18.50;;;8.43;;
64520;SDS011;50896;46.714;17.322;2023-09-30T11:24:06;18.30;;;8.32;;
64520;SDS011;50896;46.714;17.322;2023-09-30T11:26:34;26.73;;;9.60;;
64520;SDS011;50896;46.714;17.322;2023-09-30T11:29:09;31.98;;;9.13;;
64520;SDS011;50896;46.714;17.322;2023-09-30T11:31:38;21.45;;;8.90;;
64520;SDS011;50896;46.714;17.322;2023-09-30T11:34:07;18.73;;;8.70;;
64520;SDS011;50896;46.714;17.322;2023-09-30T11:36:34;20.00;;;8.73;;
64520;SDS011;50896;46.714;17.322;2023-09-30T11:39:09;19.80;;;8.65;;
64520;SDS011;50896;46.714;17.322;2023-09-30T11:41:39;18.58;;;9.27;;
64520;SDS011;50896;46.714;17.322;2023-09-30T11:44:11;18.83;;;8.15;;
64520;SDS011;50896;46.714;17.322;2023-09-30T11:52:04;19.70;;;8.48;;
64520;SDS011;50896;46.714;17.322;2023-09-30T11:54:36;18.50;;;8.63;;
64520;SDS011;50896;46.714;17.322;2023-09-30T11:57:10;19.00;;;8.93;;
64520;SDS011;50896;46.714;17.322;2023-09-30T11:59:38;19.98;;;7.80;;
64520;SDS011;50896;46.714;17.322;2023-09-30T12:04:41;18.92;;;8.63;;
64520;SDS011;50896;46.714;17.322;2023-09-30T12:07:10;18.75;;;8.10;;
64520;SDS011;50896;46.714;17.322;2023-09-30T12:09:37;19.65;;;8.65;;
64520;SDS011;50896;46.714;17.322;2023-09-30T12:12:06;19.58;;;8.15;;
64520;SDS011;50896;46.714;17.322;2023-09-30T12:14:38;18.10;;;8.02;;
64520;SDS011;50896;46.714;17.322;2023-09-30T12:17:06;18.77;;;8.73;;
64520;SDS011;50896;46.714;17.322;2023-09-30T12:19:38;19.40;;;8.23;;
64520;SDS011;50896;46.714;17.322;2023-09-30T12:22:05;17.52;;;7.97;;
64520;SDS011;50896;46.714;17.322;2023-09-30T12:24:33;17.27;;;8.20;;
64520;SDS011;50896;46.714;17.322;2023-09-30T12:26:59;19.42;;;8.38;;
64520;SDS011;50896;46.714;17.322;2023-09-30T12:29:26;16.90;;;7.78;;
64520;SDS011;50896;46.714;17.322;2023-09-30T12:31:53;17.20;;;7.85;;
64520;SDS011;50896;46.714;17.322;2023-09-30T12:34:21;22.67;;;8.88;;
64520;SDS011;50896;46.714;17.322;2023-09-30T12:36:54;17.83;;;8.70;;
64520;SDS011;50896;46.714;17.322;2023-09-30T12:39:24;19.95;;;8.45;;
64520;SDS011;50896;46.714;17.322;2023-09-30T12:41:53;18.92;;;8.55;;
64520;SDS011;50896;46.714;17.322;2023-09-30T12:44:20;18.63;;;8.07;;
64520;SDS011;50896;46.714;17.322;2023-09-30T12:46:47;21.02;;;8.55;;
64520;SDS011;50896;46.714;17.322;2023-09-30T12:49:14;19.85;;;8.57;;
64520;SDS011;50896;46.714;17.322;2023-09-30T12:51:41;17.33;;;8.38;;
64520;SDS011;50896;46.714;17.322;2023-09-30T12:54:09;22.65;;;8.65;;
64520;SDS011;50896;46.714;17.322;2023-09-30T12:56:37;17.35;;;7.85;;
64520;SDS011;50896;46.714;17.322;2023-09-30T12:59:04;20.35;;;8.68;;
64520;SDS011;50896;46.714;17.322;2023-09-30T13:01:31;17.58;;;8.57;;
64520;SDS011;50896;46.714;17.322;2023-09-30T13:04:02;18.42;;;8.10;;
64520;SDS011;50896;46.714;17.322;2023-09-30T13:06:29;21.02;;;8.60;;
64520;SDS011;50896;46.714;17.322;2023-09-30T13:11:26;20.80;;;8.70;;
64520;SDS011;50896;46.714;17.322;2023-09-30T13:13:53;18.80;;;8.02;;
64520;SDS011;50896;46.714;17.322;2023-09-30T13:16:20;15.73;;;7.95;;
64520;SDS011;50896;46.714;17.322;2023-09-30T13:18:49;18.45;;;8.77;;
64520;SDS011;50896;46.714;17.322;2023-09-30T13:21:18;21.58;;;9.32;;
64520;SDS011;50896;46.714;17.322;2023-09-30T13:23:46;22.45;;;9.23;;
64520;SDS011;50896;46.714;17.322;2023-09-30T13:26:13;17.05;;;8.40;;
64520;SDS011;50896;46.714;17.322;2023-09-30T13:28:40;17.40;;;8.35;;
64520;SDS011;50896;46.714;17.322;2023-09-30T13:31:06;21.98;;;8.63;;
64520;SDS011;50896;46.714;17.322;2023-09-30T13:33:33;17.85;;;8.68;;
64520;SDS011;50896;46.714;17.322;2023-09-30T13:36:01;19.00;;;9.02;;
64520;SDS011;50896;46.714;17.322;2023-09-30T13:38:29;22.08;;;9.40;;
64520;SDS011;50896;46.714;17.322;2023-09-30T13:40:56;19.40;;;8.45;;
64520;SDS011;50896;46.714;17.322;2023-09-30T13:43:22;25.13;;;8.95;;
64520;SDS011;50896;46.714;17.322;2023-09-30T13:45:50;19.13;;;8.77;;
64520;SDS011;50896;46.714;17.322;2023-09-30T13:48:17;19.10;;;9.48;;
64520;SDS011;50896;46.714;17.322;2023-09-30T13:50:45;20.00;;;8.70;;
64520;SDS011;50896;46.714;17.322;2023-09-30T13:53:13;18.58;;;9.18;;
64520;SDS011;50896;46.714;17.322;2023-09-30T13:55:41;17.90;;;8.65;;
64520;SDS011;50896;46.714;17.322;2023-09-30T13:58:08;20.90;;;9.38;;
64520;SDS011;50896;46.714;17.322;2023-09-30T14:00:35;18.33;;;8.70;;
64520;SDS011;50896;46.714;17.322;2023-09-30T14:03:03;19.70;;;9.30;;
64520;SDS011;50896;46.714;17.322;2023-09-30T14:05:32;22.55;;;9.45;;
64520;SDS011;50896;46.714;17.322;2023-09-30T14:07:58;17.17;;;8.02;;
64520;SDS011;50896;46.714;17.322;2023-09-30T14:10:25;18.13;;;9.52;;
64520;SDS011;50896;46.714;17.322;2023-09-30T14:12:52;20.30;;;9.10;;
64520;SDS011;50896;46.714;17.322;2023-09-30T14:15:20;18.85;;;8.90;;
64520;SDS011;50896;46.714;17.322;2023-09-30T14:17:58;21.48;;;9.43;;
64520;SDS011;50896;46.714;17.322;2023-09-30T14:20:25;22.17;;;9.70;;
64520;SDS011;50896;46.714;17.322;2023-09-30T14:22:52;21.08;;;8.68;;
64520;SDS011;50896;46.714;17.322;2023-09-30T14:25:18;19.30;;;8.73;;
64520;SDS011;50896;46.714;17.322;2023-09-30T14:27:45;20.00;;;8.98;;
64520;SDS011;50896;46.714;17.322;2023-09-30T14:30:13;19.92;;;9.18;;
64520;SDS011;50896;46.714;17.322;2023-09-30T14:32:41;20.80;;;9.25;;
64520;SDS011;50896;46.714;17.322;2023-09-30T14:35:09;18.85;;;8.65;;
64520;SDS011;50896;46.714;17.322;2023-09-30T14:37:39;19.48;;;8.77;;
64520;SDS011;50896;46.714;17.322;2023-09-30T14:40:07;20.27;;;9.23;;
64520;SDS011;50896;46.714;17.322;2023-09-30T14:42:37;24.38;;;10.52;;
64520;SDS011;50896;46.714;17.322;2023-09-30T14:45:05;21.13;;;9.98;;
64520;SDS011;50896;46.714;17.322;2023-09-30T14:47:32;22.42;;;11.10;;
64520;SDS011;50896;46.714;17.322;2023-09-30T14:50:00;20.48;;;9.25;;
64520;SDS011;50896;46.714;17.322;2023-09-30T14:52:28;20.20;;;9.30;;
64520;SDS011;50896;46.714;17.322;2023-09-30T14:54:55;20.42;;;8.85;;
64520;SDS011;50896;46.714;17.322;2023-09-30T14:57:22;20.67;;;9.60;;
64520;SDS011;50896;46.714;17.322;2023-09-30T14:59:49;18.77;;;8.82;;
64520;SDS011;50896;46.714;17.322;2023-09-30T15:02:16;17.83;;;8.23;;
64520;SDS011;50896;46.714;17.322;2023-09-30T15:04:43;19.00;;;9.13;;